createdAt,value
2018-12-01T00:00:40.759Z,0.00
2018-12-01T00:01:40.739Z,0.00
2018-12-01T00:02:40.020Z,0.00
2018-12-01T00:03:40.737Z,0.00
2018-12-01T00:04:40.017Z,0.00
2018-12-01T00:05:40.014Z,0.00
2018-12-01T00:06:40.737Z,0.00
2018-12-01T00:07:39.968Z,0.00
2018-12-01T00:08:40.741Z,0.00
2018-12-01T00:09:39.946Z,0.00
2018-12-01T00:10:40.092Z,0.00
2018-12-01T00:11:44.766Z,0.00
2018-12-01T00:12:39.913Z,0.00
2018-12-01T00:13:46.736Z,0.00
2018-12-01T00:14:39.892Z,0.00
2018-12-01T00:15:39.914Z,0.00
2018-12-01T00:16:40.739Z,0.00
2018-12-01T00:17:41.767Z,0.00
2018-12-01T00:18:41.755Z,0.00
2018-12-01T00:19:39.884Z,0.00
2018-12-01T00:20:40.249Z,0.00
2018-12-01T00:21:40.743Z,0.00
2018-12-01T00:22:39.810Z,0.00
2018-12-01T00:23:40.752Z,0.00
2018-12-01T00:24:39.786Z,0.00
2018-12-01T00:25:40.251Z,0.00
2018-12-01T00:26:50.799Z,0.00
2018-12-01T00:27:40.737Z,0.00
2018-12-01T00:28:40.742Z,0.00
2018-12-01T00:29:40.239Z,0.00
2018-12-01T00:30:40.738Z,0.00
2018-12-01T00:31:39.764Z,0.00
2018-12-01T00:32:44.257Z,0.00
2018-12-01T00:33:40.243Z,0.00
2018-12-01T00:34:40.253Z,0.00
2018-12-01T00:35:40.244Z,0.00
2018-12-01T00:36:39.748Z,0.00
2018-12-01T00:37:39.650Z,0.00
2018-12-01T00:38:41.246Z,0.00
2018-12-01T00:39:39.625Z,0.00
2018-12-01T00:40:40.241Z,0.00
2018-12-01T00:41:39.622Z,0.00
2018-12-01T00:42:39.748Z,0.00
2018-12-01T00:43:40.237Z,0.00
2018-12-01T00:44:39.585Z,0.00
2018-12-01T00:45:39.751Z,0.00
2018-12-01T00:46:39.552Z,0.00
2018-12-01T00:47:39.545Z,0.00
2018-12-01T00:48:39.529Z,0.00
2018-12-01T00:49:40.240Z,0.00
2018-12-01T00:50:39.522Z,0.00
2018-12-01T00:51:40.243Z,0.00
2018-12-01T00:52:40.457Z,0.00
2018-12-01T00:53:39.504Z,0.00
2018-12-01T00:54:39.469Z,0.00
2018-12-01T00:55:39.753Z,0.00
2018-12-01T00:56:39.444Z,0.00
2018-12-01T00:57:39.446Z,0.00
2018-12-01T00:58:44.250Z,0.00
2018-12-01T00:59:41.244Z,0.00
2018-12-01T01:00:39.768Z,0.00
2018-12-01T01:01:40.240Z,0.00
2018-12-01T01:02:39.390Z,0.00
2018-12-01T01:03:41.243Z,0.00
2018-12-01T01:04:42.241Z,0.00
2018-12-01T01:05:41.251Z,0.00
2018-12-01T01:06:39.330Z,0.00
2018-12-01T01:07:39.324Z,0.00
2018-12-01T01:08:42.244Z,0.00
2018-12-01T01:09:41.246Z,0.00
2018-12-01T01:10:40.251Z,0.00
2018-12-01T01:11:41.255Z,0.00
2018-12-01T01:12:39.268Z,0.00
2018-12-01T01:13:39.273Z,0.00
2018-12-01T01:14:39.247Z,0.00
2018-12-01T01:15:39.750Z,0.00
2018-12-01T01:16:40.766Z,0.00
2018-12-01T01:17:39.752Z,0.00
2018-12-01T01:18:39.208Z,0.00
2018-12-01T01:19:39.749Z,0.00
2018-12-01T01:20:39.739Z,0.00
2018-12-01T01:21:40.240Z,0.00
2018-12-01T01:22:39.188Z,0.00
2018-12-01T01:23:41.741Z,0.00
2018-12-01T01:24:39.143Z,0.00
2018-12-01T01:25:39.160Z,0.00
2018-12-01T01:26:39.126Z,0.00
2018-12-01T01:27:40.769Z,0.00
2018-12-01T01:28:39.099Z,0.00
2018-12-01T01:29:40.775Z,0.00
2018-12-01T01:30:39.250Z,0.00
2018-12-01T01:31:39.068Z,0.00
2018-12-01T01:32:39.749Z,0.00
2018-12-01T01:33:39.044Z,0.00
2018-12-01T01:34:39.737Z,0.00
2018-12-01T01:35:50.102Z,0.00
2018-12-01T01:36:39.054Z,0.00
2018-12-01T01:37:39.010Z,0.00
2018-12-01T01:38:38.997Z,0.00
2018-12-01T01:39:38.981Z,0.00
2018-12-01T01:40:39.277Z,0.00
2018-12-01T01:41:38.957Z,0.00
2018-12-01T01:42:38.951Z,0.00
2018-12-01T01:43:38.937Z,0.00
2018-12-01T01:44:39.742Z,0.00
2018-12-01T01:45:46.762Z,0.00
2018-12-01T01:46:39.739Z,0.00
2018-12-01T01:47:38.891Z,0.00
2018-12-01T01:48:38.894Z,0.00
2018-12-01T01:49:39.740Z,0.00
2018-12-01T01:50:39.261Z,0.00
2018-12-01T01:51:39.758Z,0.00
2018-12-01T01:52:38.841Z,0.00
2018-12-01T01:53:38.830Z,0.00
2018-12-01T01:54:38.825Z,0.00
2018-12-01T01:55:38.821Z,0.00
2018-12-01T01:56:38.874Z,0.00
2018-12-01T01:57:39.011Z,0.00
2018-12-01T01:58:43.741Z,0.00
2018-12-01T01:59:40.768Z,0.00
2018-12-01T02:00:39.763Z,0.00
2018-12-01T02:01:38.738Z,0.00
2018-12-01T02:02:38.731Z,0.00
2018-12-01T02:03:38.716Z,0.00
2018-12-01T02:04:39.239Z,0.00
2018-12-01T02:05:38.763Z,0.00
2018-12-01T02:06:38.684Z,0.00
2018-12-01T02:07:40.256Z,0.00
2018-12-01T02:08:38.669Z,0.00
2018-12-01T02:09:38.651Z,0.00
2018-12-01T02:10:39.240Z,0.00
2018-12-01T02:11:40.275Z,0.00
2018-12-01T02:12:38.620Z,0.00
2018-12-01T02:13:38.607Z,0.00
2018-12-01T02:14:39.254Z,0.00
2018-12-01T02:15:38.601Z,0.00
2018-12-01T02:16:38.592Z,0.00
2018-12-01T02:17:39.239Z,0.00
2018-12-01T02:18:38.562Z,0.00
2018-12-01T02:19:40.270Z,0.00
2018-12-01T02:20:39.240Z,0.00
2018-12-01T02:21:38.783Z,0.00
2018-12-01T02:22:38.518Z,0.00
2018-12-01T02:23:38.501Z,0.00
2018-12-01T02:24:40.273Z,0.00
2018-12-01T02:25:39.244Z,0.00
2018-12-01T02:26:41.763Z,0.00
2018-12-01T02:27:39.241Z,0.00
2018-12-01T02:28:40.258Z,0.00
2018-12-01T02:29:40.252Z,0.00
2018-12-01T02:30:45.240Z,0.00
2018-12-01T02:31:38.434Z,0.00
2018-12-01T02:32:38.406Z,0.00
2018-12-01T02:33:38.408Z,0.00
2018-12-01T02:34:40.254Z,0.00
2018-12-01T02:35:38.371Z,0.00
2018-12-01T02:36:39.272Z,0.00
2018-12-01T02:37:38.348Z,0.00
2018-12-01T02:38:38.344Z,0.00
2018-12-01T02:39:39.291Z,0.00
2018-12-01T02:40:45.267Z,0.00
2018-12-01T02:41:38.764Z,0.00
2018-12-01T02:42:38.296Z,0.00
2018-12-01T02:43:38.287Z,0.00
2018-12-01T02:44:38.275Z,0.00
2018-12-01T02:45:38.266Z,0.00
2018-12-01T02:46:38.269Z,0.00
2018-12-01T02:47:38.260Z,0.00
2018-12-01T02:48:38.233Z,0.00
2018-12-01T02:49:38.754Z,0.00
2018-12-01T02:50:38.212Z,0.00
2018-12-01T02:51:38.248Z,0.00
2018-12-01T02:52:38.190Z,0.00
2018-12-01T02:53:38.180Z,0.00
2018-12-01T02:54:38.746Z,0.00
2018-12-01T02:55:38.166Z,0.00
2018-12-01T02:56:38.162Z,0.00
2018-12-01T02:57:38.140Z,0.00
2018-12-01T02:58:38.739Z,0.00
2018-12-01T02:59:40.745Z,0.00
2018-12-01T03:00:38.325Z,0.00
2018-12-01T03:01:38.133Z,0.00
2018-12-01T03:02:38.086Z,0.00
2018-12-01T03:03:38.738Z,0.00
2018-12-01T03:04:38.064Z,0.00
2018-12-01T03:05:38.073Z,0.00
2018-12-01T03:06:38.263Z,0.00
2018-12-01T03:07:38.034Z,0.00
2018-12-01T03:08:38.020Z,0.00
2018-12-01T03:09:38.015Z,0.00
2018-12-01T03:10:38.003Z,0.00
2018-12-01T03:11:38.002Z,0.00
2018-12-01T03:12:37.995Z,0.00
2018-12-01T03:13:39.738Z,0.00
2018-12-01T03:14:37.965Z,0.00
2018-12-01T03:15:37.949Z,0.00
2018-12-01T03:16:37.963Z,0.00
2018-12-01T03:17:38.752Z,0.00
2018-12-01T03:18:37.924Z,0.00
2018-12-01T03:19:37.921Z,0.00
2018-12-01T03:20:37.895Z,0.00
2018-12-01T03:21:37.980Z,0.00
2018-12-01T03:22:39.775Z,0.00
2018-12-01T03:23:38.742Z,0.00
2018-12-01T03:24:37.850Z,0.00
2018-12-01T03:25:37.846Z,0.00
2018-12-01T03:26:38.264Z,0.00
2018-12-01T03:27:37.817Z,0.00
2018-12-01T03:28:39.789Z,0.00
2018-12-01T03:29:37.803Z,0.00
2018-12-01T03:30:38.747Z,0.00
2018-12-01T03:31:37.795Z,0.00
2018-12-01T03:32:38.786Z,0.00
2018-12-01T03:33:37.763Z,0.00
2018-12-01T03:34:37.742Z,0.00
2018-12-01T03:35:37.740Z,0.00
2018-12-01T03:36:37.738Z,0.00
2018-12-01T03:37:38.749Z,0.00
2018-12-01T03:38:39.274Z,0.00
2018-12-01T03:39:37.696Z,0.00
2018-12-01T03:40:38.264Z,0.00
2018-12-01T03:41:37.695Z,0.00
2018-12-01T03:42:37.707Z,0.00
2018-12-01T03:43:39.270Z,0.00
2018-12-01T03:44:38.239Z,0.00
2018-12-01T03:45:38.244Z,0.00
2018-12-01T03:46:37.627Z,0.00
2018-12-01T03:47:37.621Z,0.00
2018-12-01T03:48:37.761Z,0.00
2018-12-01T03:49:37.599Z,0.00
2018-12-01T03:50:37.594Z,0.00
2018-12-01T03:51:38.239Z,0.00
2018-12-01T03:52:37.560Z,0.00
2018-12-01T03:53:37.541Z,0.00
2018-12-01T03:54:37.749Z,0.00
2018-12-01T03:55:38.239Z,0.00
2018-12-01T03:56:37.510Z,0.00
2018-12-01T03:57:37.752Z,0.00
2018-12-01T03:58:40.240Z,0.00
2018-12-01T03:59:37.493Z,0.00
2018-12-01T04:00:37.476Z,0.00
2018-12-01T04:01:37.455Z,0.00
2018-12-01T04:02:37.753Z,0.00
2018-12-01T04:03:37.433Z,0.00
2018-12-01T04:04:42.275Z,0.00
2018-12-01T04:05:44.244Z,0.00
2018-12-01T04:06:42.270Z,0.00
2018-12-01T04:07:37.417Z,0.00
2018-12-01T04:08:42.269Z,0.00
2018-12-01T04:09:38.239Z,0.00
2018-12-01T04:10:59.241Z,0.00
2018-12-01T04:11:37.369Z,0.00
2018-12-01T04:12:37.351Z,0.00
2018-12-01T04:13:37.335Z,0.00
2018-12-01T04:14:37.323Z,0.00
2018-12-01T04:15:39.260Z,0.00
2018-12-01T04:16:37.743Z,0.00
2018-12-01T04:17:38.251Z,0.00
2018-12-01T04:18:37.277Z,0.00
2018-12-01T04:19:37.284Z,0.00
2018-12-01T04:20:38.239Z,0.00
2018-12-01T04:21:38.241Z,0.00
2018-12-01T04:22:37.305Z,0.00
2018-12-01T04:23:37.223Z,0.00
2018-12-01T04:24:37.741Z,0.00
2018-12-01T04:25:37.427Z,0.00
2018-12-01T04:26:37.194Z,0.00
2018-12-01T04:27:37.196Z,0.00
2018-12-01T04:28:37.744Z,0.00
2018-12-01T04:29:37.744Z,0.00
2018-12-01T04:30:37.766Z,0.00
2018-12-01T04:31:37.744Z,0.00
2018-12-01T04:32:37.255Z,0.00
2018-12-01T04:33:41.756Z,0.00
2018-12-01T04:34:37.744Z,0.00
2018-12-01T04:35:37.096Z,0.00
2018-12-01T04:36:38.765Z,0.00
2018-12-01T04:37:37.250Z,0.00
2018-12-01T04:38:37.082Z,0.00
2018-12-01T04:39:37.063Z,0.00
2018-12-01T04:40:37.043Z,0.00
2018-12-01T04:41:37.045Z,0.00
2018-12-01T04:42:37.036Z,0.00
2018-12-01T04:43:37.754Z,0.00
2018-12-01T04:44:37.740Z,0.00
2018-12-01T04:45:41.756Z,0.00
2018-12-01T04:46:37.217Z,0.00
2018-12-01T04:47:37.083Z,0.00
2018-12-01T04:48:36.956Z,0.00
2018-12-01T04:49:38.753Z,0.00
2018-12-01T04:50:37.754Z,0.00
2018-12-01T04:51:37.743Z,0.00
2018-12-01T04:52:37.738Z,0.00
2018-12-01T04:53:38.751Z,0.00
2018-12-01T04:54:37.748Z,0.00
2018-12-01T04:55:39.743Z,0.00
2018-12-01T04:56:36.871Z,0.00
2018-12-01T04:57:37.768Z,0.00
2018-12-01T04:58:37.255Z,0.00
2018-12-01T04:59:38.747Z,0.00
2018-12-01T05:00:37.743Z,0.00
2018-12-01T05:01:36.815Z,0.00
2018-12-01T05:02:47.835Z,0.00
2018-12-01T05:03:37.757Z,0.00
2018-12-01T05:04:36.782Z,0.00
2018-12-01T05:05:36.781Z,0.00
2018-12-01T05:06:37.747Z,0.00
2018-12-01T05:07:37.784Z,0.00
2018-12-01T05:08:37.262Z,0.00
2018-12-01T05:09:38.306Z,0.00
2018-12-01T05:10:36.722Z,0.00
2018-12-01T05:11:37.239Z,0.00
2018-12-01T05:12:39.261Z,0.00
2018-12-01T05:13:36.765Z,0.00
2018-12-01T05:14:36.674Z,0.00
2018-12-01T05:15:37.246Z,0.00
2018-12-01T05:16:37.242Z,0.00
2018-12-01T05:17:38.272Z,0.00
2018-12-01T05:18:38.257Z,0.00
2018-12-01T05:19:36.625Z,0.00
2018-12-01T05:20:38.276Z,0.00
2018-12-01T05:21:36.602Z,0.00
2018-12-01T05:22:37.253Z,0.00
2018-12-01T05:23:38.260Z,0.00
2018-12-01T05:24:37.240Z,0.00
2018-12-01T05:25:37.240Z,0.00
2018-12-01T05:26:39.262Z,0.00
2018-12-01T05:27:37.240Z,0.00
2018-12-01T05:28:38.472Z,0.00
2018-12-01T05:29:36.538Z,0.00
2018-12-01T05:30:38.285Z,0.00
2018-12-01T05:31:38.277Z,0.00
2018-12-01T05:32:36.491Z,0.00
2018-12-01T05:33:37.253Z,0.00
2018-12-01T05:34:36.467Z,0.00
2018-12-01T05:35:37.250Z,0.00
2018-12-01T05:36:36.443Z,0.00
2018-12-01T05:37:36.462Z,0.00
2018-12-01T05:38:36.420Z,0.00
2018-12-01T05:39:37.238Z,0.00
2018-12-01T05:40:36.435Z,0.00
2018-12-01T05:41:36.760Z,0.00
2018-12-01T05:42:36.378Z,0.00
2018-12-01T05:43:37.241Z,0.00
2018-12-01T05:44:36.370Z,0.00
2018-12-01T05:45:38.279Z,0.00
2018-12-01T05:46:36.832Z,0.00
2018-12-01T05:47:36.438Z,0.00
2018-12-01T05:48:36.312Z,0.00
2018-12-01T05:49:36.507Z,0.00
2018-12-01T05:50:36.290Z,0.00
2018-12-01T05:51:36.283Z,0.00
2018-12-01T05:52:37.256Z,0.00
2018-12-01T05:53:36.285Z,0.00
2018-12-01T05:54:38.276Z,0.00
2018-12-01T05:55:36.312Z,0.00
2018-12-01T05:56:37.782Z,0.00
2018-12-01T05:57:37.783Z,0.00
2018-12-01T05:58:36.752Z,0.00
2018-12-01T05:59:36.235Z,0.00
2018-12-01T06:00:38.787Z,0.00
2018-12-01T06:01:36.171Z,0.00
2018-12-01T06:02:36.160Z,0.00
2018-12-01T06:03:39.259Z,0.00
2018-12-01T06:04:36.751Z,0.00
2018-12-01T06:05:36.133Z,0.00
2018-12-01T06:06:36.743Z,0.00
2018-12-01T06:07:36.109Z,0.00
2018-12-01T06:08:36.262Z,0.00
2018-12-01T06:09:36.082Z,0.00
2018-12-01T06:10:36.117Z,0.00
2018-12-01T06:11:36.748Z,0.00
2018-12-01T06:12:36.742Z,0.00
2018-12-01T06:13:36.186Z,0.00
2018-12-01T06:14:37.060Z,0.00
2018-12-01T06:15:36.072Z,0.00
2018-12-01T06:16:36.083Z,0.00
2018-12-01T06:17:36.025Z,0.00
2018-12-01T06:18:36.040Z,0.00
2018-12-01T06:19:37.779Z,0.00
2018-12-01T06:20:36.788Z,0.00
2018-12-01T06:21:37.759Z,0.00
2018-12-01T06:22:40.766Z,0.00
2018-12-01T06:23:36.298Z,0.00
2018-12-01T06:24:35.926Z,0.00
2018-12-01T06:25:38.747Z,0.00
2018-12-01T06:26:37.749Z,0.00
2018-12-01T06:27:36.742Z,0.00
2018-12-01T06:28:43.750Z,0.00
2018-12-01T06:29:35.887Z,0.00
2018-12-01T06:30:35.858Z,0.00
2018-12-01T06:31:35.849Z,0.00
2018-12-01T06:32:35.833Z,0.00
2018-12-01T06:33:35.837Z,0.00
2018-12-01T06:34:35.821Z,0.00
2018-12-01T06:35:35.814Z,0.00
2018-12-01T06:36:36.807Z,0.00
2018-12-01T06:37:36.785Z,0.00
2018-12-01T06:38:36.764Z,0.00
2018-12-01T06:39:35.774Z,0.00
2018-12-01T06:40:38.809Z,0.00
2018-12-01T06:41:36.246Z,4.00
2018-12-01T06:42:35.761Z,4.00
2018-12-01T06:43:35.775Z,0.00
2018-12-01T06:44:36.783Z,4.00
2018-12-01T06:45:35.695Z,4.00
2018-12-01T06:46:35.691Z,4.00
2018-12-01T06:47:35.735Z,4.00
2018-12-01T06:48:40.775Z,8.00
2018-12-01T06:49:35.703Z,8.00
2018-12-01T06:50:35.695Z,12.00
2018-12-01T06:51:36.309Z,8.00
2018-12-01T06:52:35.662Z,12.00
2018-12-01T06:53:35.751Z,16.00
2018-12-01T06:54:36.240Z,20.00
2018-12-01T06:55:36.245Z,20.00
2018-12-01T06:56:36.260Z,28.00
2018-12-01T06:57:35.560Z,32.00
2018-12-01T06:58:35.613Z,40.00
2018-12-01T06:59:35.557Z,40.00
2018-12-01T07:00:35.610Z,48.00
2018-12-01T07:01:36.255Z,52.00
2018-12-01T07:02:36.253Z,60.00
2018-12-01T07:03:41.823Z,68.00
2018-12-01T07:04:42.248Z,76.00
2018-12-01T07:05:36.255Z,84.00
2018-12-01T07:06:35.522Z,100.00
2018-12-01T07:07:36.263Z,112.00
2018-12-01T07:08:35.464Z,124.00
2018-12-01T07:09:36.250Z,144.00
2018-12-01T07:10:35.427Z,156.00
2018-12-01T07:11:37.243Z,172.00
2018-12-01T07:12:36.241Z,184.00
2018-12-01T07:13:35.410Z,196.00
2018-12-01T07:14:35.955Z,204.00
2018-12-01T07:15:35.385Z,208.00
2018-12-01T07:16:36.277Z,216.00
2018-12-01T07:17:36.250Z,232.00
2018-12-01T07:18:36.238Z,252.00
2018-12-01T07:19:35.328Z,264.00
2018-12-01T07:20:35.314Z,280.00
2018-12-01T07:21:35.850Z,304.00
2018-12-01T07:22:35.356Z,324.00
2018-12-01T07:23:35.305Z,340.00
2018-12-01T07:24:35.825Z,368.00
2018-12-01T07:25:35.278Z,376.00
2018-12-01T07:26:35.280Z,392.00
2018-12-01T07:27:35.263Z,408.00
2018-12-01T07:28:35.245Z,428.00
2018-12-01T07:29:35.308Z,448.00
2018-12-01T07:30:35.257Z,464.00
2018-12-01T07:31:35.245Z,480.00
2018-12-01T07:32:35.241Z,480.00
2018-12-01T07:33:35.200Z,484.00
2018-12-01T07:34:35.356Z,484.00
2018-12-01T07:35:35.207Z,480.00
2018-12-01T07:36:35.156Z,484.00
2018-12-01T07:37:35.187Z,484.00
2018-12-01T07:38:35.147Z,480.00
2018-12-01T07:39:35.336Z,472.00
2018-12-01T07:40:35.131Z,468.00
2018-12-01T07:41:35.078Z,476.00
2018-12-01T07:42:35.068Z,492.00
2018-12-01T07:43:35.098Z,524.00
2018-12-01T07:44:35.058Z,556.00
2018-12-01T07:45:35.037Z,604.00
2018-12-01T07:46:35.045Z,652.00
2018-12-01T07:47:35.025Z,692.00
2018-12-01T07:48:35.000Z,712.00
2018-12-01T07:49:35.039Z,732.00
2018-12-01T07:50:34.991Z,744.00
2018-12-01T07:51:34.971Z,780.00
2018-12-01T07:52:34.993Z,820.00
2018-12-01T07:53:34.959Z,832.00
2018-12-01T07:54:34.949Z,824.00
2018-12-01T07:55:34.938Z,828.00
2018-12-01T07:56:34.913Z,828.00
2018-12-01T07:57:34.924Z,856.00
2018-12-01T07:58:34.950Z,892.00
2018-12-01T07:59:34.959Z,848.00
2018-12-01T08:00:34.918Z,828.00
2018-12-01T08:01:34.888Z,808.00
2018-12-01T08:02:34.880Z,764.00
2018-12-01T08:03:34.850Z,732.00
2018-12-01T08:04:34.831Z,720.00
2018-12-01T08:05:35.621Z,700.00
2018-12-01T08:06:34.810Z,692.00
2018-12-01T08:07:34.794Z,700.00
2018-12-01T08:08:34.799Z,732.00
2018-12-01T08:09:34.848Z,776.00
2018-12-01T08:10:34.832Z,844.00
2018-12-01T08:11:35.316Z,916.00
2018-12-01T08:12:34.750Z,1012.00
2018-12-01T08:13:34.737Z,1104.00
2018-12-01T08:14:34.799Z,1204.00
2018-12-01T08:15:34.725Z,1272.00
2018-12-01T08:16:34.715Z,1296.00
2018-12-01T08:17:35.730Z,1320.00
2018-12-01T08:18:34.676Z,1368.00
2018-12-01T08:19:34.764Z,1432.00
2018-12-01T08:20:34.653Z,1504.00
2018-12-01T08:21:34.642Z,1560.00
2018-12-01T08:22:34.632Z,1576.00
2018-12-01T08:23:34.620Z,1584.00
2018-12-01T08:24:34.775Z,1584.00
2018-12-01T08:25:34.604Z,1576.00
2018-12-01T08:26:34.586Z,1576.00
2018-12-01T08:27:34.577Z,1560.00
2018-12-01T08:28:34.565Z,1556.00
2018-12-01T08:29:34.802Z,1540.00
2018-12-01T08:30:34.542Z,1520.00
2018-12-01T08:31:34.532Z,1512.00
2018-12-01T08:32:34.526Z,1524.00
2018-12-01T08:33:34.507Z,1556.00
2018-12-01T08:34:34.510Z,1596.00
2018-12-01T08:35:34.499Z,1588.00
2018-12-01T08:36:34.475Z,1616.00
2018-12-01T08:37:34.472Z,1620.00
2018-12-01T08:38:34.474Z,1584.00
2018-12-01T08:39:34.457Z,1548.00
2018-12-01T08:40:34.430Z,1540.00
2018-12-01T08:41:34.428Z,1540.00
2018-12-01T08:42:34.408Z,1536.00
2018-12-01T08:43:34.400Z,1524.00
2018-12-01T08:44:34.401Z,1516.00
2018-12-01T08:45:34.773Z,1540.00
2018-12-01T08:46:34.366Z,1544.00
2018-12-01T08:47:34.354Z,1544.00
2018-12-01T08:48:34.345Z,1556.00
2018-12-01T08:49:34.334Z,1596.00
2018-12-01T08:50:34.331Z,1620.00
2018-12-01T08:51:34.786Z,1652.00
2018-12-01T08:52:34.301Z,1664.00
2018-12-01T08:53:34.289Z,1684.00
2018-12-01T08:54:34.283Z,1708.00
2018-12-01T08:55:34.267Z,1740.00
2018-12-01T08:56:34.254Z,1772.00
2018-12-01T08:57:34.268Z,1796.00
2018-12-01T08:58:34.233Z,1808.00
2018-12-01T08:59:34.221Z,1828.00
2018-12-01T09:00:34.220Z,1844.00
2018-12-01T09:01:34.199Z,1864.00
2018-12-01T09:02:34.188Z,1876.00
2018-12-01T09:03:34.210Z,1860.00
2018-12-01T09:04:34.168Z,1840.00
2018-12-01T09:05:34.156Z,1832.00
2018-12-01T09:06:34.149Z,1828.00
2018-12-01T09:07:34.137Z,1824.00
2018-12-01T09:08:34.123Z,1808.00
2018-12-01T09:09:34.146Z,1972.00
2018-12-01T09:10:34.135Z,1996.00
2018-12-01T09:11:34.097Z,2024.00
2018-12-01T09:12:34.089Z,1992.00
2018-12-01T09:13:34.081Z,1900.00
2018-12-01T09:14:34.063Z,1864.00
2018-12-01T09:15:36.835Z,1880.00
2018-12-01T09:16:34.038Z,1936.00
2018-12-01T09:17:34.098Z,2028.00
2018-12-01T09:18:34.050Z,2124.00
2018-12-01T09:19:34.005Z,2276.00
2018-12-01T09:20:34.014Z,2432.00
2018-12-01T09:21:33.981Z,2540.00
2018-12-01T09:22:33.972Z,2516.00
2018-12-01T09:23:33.962Z,2392.00
2018-12-01T09:24:33.972Z,2472.00
2018-12-01T09:25:33.953Z,2536.00
2018-12-01T09:26:33.942Z,2392.00
2018-12-01T09:27:33.917Z,2132.00
2018-12-01T09:28:33.923Z,1888.00
2018-12-01T09:29:33.898Z,1672.00
2018-12-01T09:30:33.902Z,1612.00
2018-12-01T09:31:33.878Z,1540.00
2018-12-01T09:32:33.875Z,1560.00
2018-12-01T09:33:33.860Z,1576.00
2018-12-01T09:34:34.785Z,1604.00
2018-12-01T09:35:34.314Z,1680.00
2018-12-01T09:36:33.853Z,1704.00
2018-12-01T09:37:33.878Z,1720.00
2018-12-01T09:38:33.899Z,1792.00
2018-12-01T09:39:33.852Z,1900.00
2018-12-01T09:40:34.185Z,2060.00
2018-12-01T09:41:33.838Z,2380.00
2018-12-01T09:42:33.786Z,2428.00
2018-12-01T09:43:33.751Z,2692.00
2018-12-01T09:44:33.743Z,2992.00
2018-12-01T09:45:33.734Z,2708.00
2018-12-01T09:46:33.769Z,2664.00
2018-12-01T09:47:33.707Z,2684.00
2018-12-01T09:48:33.701Z,2532.00
2018-12-01T09:49:33.685Z,2568.00
2018-12-01T09:50:33.676Z,2332.00
2018-12-01T09:51:33.691Z,2164.00
2018-12-01T09:52:33.764Z,1984.00
2018-12-01T09:53:33.646Z,1952.00
2018-12-01T09:54:33.634Z,1992.00
2018-12-01T09:55:33.620Z,1976.00
2018-12-01T09:56:33.612Z,1932.00
2018-12-01T09:57:33.603Z,1880.00
2018-12-01T09:58:33.606Z,1860.00
2018-12-01T09:59:33.579Z,1780.00
2018-12-01T10:00:33.584Z,1704.00
2018-12-01T10:01:33.560Z,1664.00
2018-12-01T10:02:33.549Z,1568.00
2018-12-01T10:03:33.544Z,1592.00
2018-12-01T10:04:33.528Z,1628.00
2018-12-01T10:05:33.540Z,1600.00
2018-12-01T10:06:33.521Z,1788.00
2018-12-01T10:07:33.495Z,1832.00
2018-12-01T10:08:33.486Z,1796.00
2018-12-01T10:09:33.495Z,1748.00
2018-12-01T10:10:33.480Z,1800.00
2018-12-01T10:11:33.453Z,1740.00
2018-12-01T10:12:33.447Z,1800.00
2018-12-01T10:13:33.429Z,1660.00
2018-12-01T10:14:33.420Z,1724.00
2018-12-01T10:15:33.424Z,1752.00
2018-12-01T10:16:33.398Z,1644.00
2018-12-01T10:17:33.394Z,1628.00
2018-12-01T10:18:33.381Z,1652.00
2018-12-01T10:19:33.368Z,1752.00
2018-12-01T10:20:33.376Z,1812.00
2018-12-01T10:21:33.344Z,1752.00
2018-12-01T10:22:33.339Z,1796.00
2018-12-01T10:23:33.325Z,1868.00
2018-12-01T10:24:33.316Z,2056.00
2018-12-01T10:25:33.763Z,2084.00
2018-12-01T10:26:33.297Z,2148.00
2018-12-01T10:27:33.282Z,2272.00
2018-12-01T10:28:33.275Z,2432.00
2018-12-01T10:29:33.981Z,2444.00
2018-12-01T10:30:33.764Z,2524.00
2018-12-01T10:31:33.244Z,2552.00
2018-12-01T10:32:33.239Z,2652.00
2018-12-01T10:33:33.219Z,2508.00
2018-12-01T10:34:33.218Z,2760.00
2018-12-01T10:35:33.262Z,2892.00
2018-12-01T10:36:33.190Z,2680.00
2018-12-01T10:37:33.180Z,2480.00
2018-12-01T10:38:33.163Z,2428.00
2018-12-01T10:39:33.151Z,2392.00
2018-12-01T10:40:33.167Z,2240.00
2018-12-01T10:41:33.131Z,2396.00
2018-12-01T10:42:33.129Z,2408.00
2018-12-01T10:43:33.749Z,2408.00
2018-12-01T10:44:33.151Z,2496.00
2018-12-01T10:45:33.106Z,2528.00
2018-12-01T10:46:33.096Z,2548.00
2018-12-01T10:47:33.069Z,2536.00
2018-12-01T10:48:33.057Z,2512.00
2018-12-01T10:49:33.057Z,2468.00
2018-12-01T10:50:33.264Z,2452.00
2018-12-01T10:51:33.024Z,2476.00
2018-12-01T10:52:33.027Z,2432.00
2018-12-01T10:53:33.000Z,2448.00
2018-12-01T10:54:32.995Z,2504.00
2018-12-01T10:55:32.988Z,2536.00
2018-12-01T10:56:33.277Z,2604.00
2018-12-01T10:57:32.987Z,2608.00
2018-12-01T10:58:32.948Z,2640.00
2018-12-01T10:59:33.010Z,2736.00
2018-12-01T11:00:32.946Z,2812.00
2018-12-01T11:01:33.264Z,2764.00
2018-12-01T11:02:32.907Z,2688.00
2018-12-01T11:03:32.918Z,2648.00
2018-12-01T11:04:32.892Z,2612.00
2018-12-01T11:05:32.890Z,2512.00
2018-12-01T11:06:32.880Z,2576.00
2018-12-01T11:07:32.873Z,2632.00
2018-12-01T11:08:34.737Z,2652.00
2018-12-01T11:09:32.835Z,2660.00
2018-12-01T11:10:32.819Z,2724.00
2018-12-01T11:11:32.834Z,2792.00
2018-12-01T11:12:32.803Z,2760.00
2018-12-01T11:13:33.266Z,2672.00
2018-12-01T11:14:32.781Z,2628.00
2018-12-01T11:15:32.767Z,2604.00
2018-12-01T11:16:32.770Z,2620.00
2018-12-01T11:17:32.746Z,2744.00
2018-12-01T11:18:47.243Z,2460.00
2018-12-01T11:19:32.739Z,2368.00
2018-12-01T11:20:32.727Z,2284.00
2018-12-01T11:21:32.702Z,2084.00
2018-12-01T11:22:32.691Z,1820.00
2018-12-01T11:23:32.700Z,1684.00
2018-12-01T11:24:32.673Z,1520.00
2018-12-01T11:25:32.671Z,1452.00
2018-12-01T11:26:32.663Z,1440.00
2018-12-01T11:27:32.862Z,1428.00
2018-12-01T11:28:32.630Z,1400.00
2018-12-01T11:29:32.620Z,1472.00
2018-12-01T11:30:32.625Z,1456.00
2018-12-01T11:31:32.608Z,1488.00
2018-12-01T11:32:32.585Z,1524.00
2018-12-01T11:33:32.584Z,1496.00
2018-12-01T11:34:32.565Z,1512.00
2018-12-01T11:35:32.551Z,1564.00
2018-12-01T11:36:32.762Z,1580.00
2018-12-01T11:37:32.529Z,1612.00
2018-12-01T11:38:32.518Z,1628.00
2018-12-01T11:39:32.516Z,1676.00
2018-12-01T11:40:32.498Z,1724.00
2018-12-01T11:41:32.501Z,1840.00
2018-12-01T11:42:32.476Z,1968.00
2018-12-01T11:43:32.467Z,1916.00
2018-12-01T11:44:32.456Z,1968.00
2018-12-01T11:45:32.445Z,2252.00
2018-12-01T11:46:32.451Z,2380.00
2018-12-01T11:47:32.428Z,2508.00
2018-12-01T11:48:32.430Z,2568.00
2018-12-01T11:49:32.400Z,2740.00
2018-12-01T11:50:32.389Z,3056.00
2018-12-01T11:51:32.413Z,3272.00
2018-12-01T11:52:32.367Z,3456.00
2018-12-01T11:53:32.360Z,3612.00
2018-12-01T11:54:32.349Z,3736.00
2018-12-01T11:55:32.335Z,3812.00
2018-12-01T11:56:32.326Z,3760.00
2018-12-01T11:57:32.346Z,3600.00
2018-12-01T11:58:32.305Z,3708.00
2018-12-01T11:59:32.295Z,3812.00
2018-12-01T12:00:32.285Z,3860.00
2018-12-01T12:01:32.274Z,4192.00
2018-12-01T12:02:32.262Z,4248.00
2018-12-01T12:03:32.281Z,4212.00
2018-12-01T12:04:32.240Z,4084.00
2018-12-01T12:05:32.230Z,3788.00
2018-12-01T12:06:32.760Z,3624.00
2018-12-01T12:07:32.740Z,3700.00
2018-12-01T12:08:32.198Z,4128.00
2018-12-01T12:09:32.404Z,4504.00
2018-12-01T12:10:32.177Z,4872.00
2018-12-01T12:11:32.190Z,4540.00
2018-12-01T12:12:32.154Z,4468.00
2018-12-01T12:13:32.145Z,4440.00
2018-12-01T12:14:32.133Z,4408.00
2018-12-01T12:15:32.134Z,4480.00
2018-12-01T12:16:32.565Z,4640.00
2018-12-01T12:17:32.102Z,4660.00
2018-12-01T12:18:32.094Z,4688.00
2018-12-01T12:19:32.087Z,4452.00
2018-12-01T12:20:32.078Z,4348.00
2018-12-01T12:21:32.069Z,4280.00
2018-12-01T12:22:32.066Z,4272.00
2018-12-01T12:23:32.040Z,4304.00
2018-12-01T12:24:32.028Z,4508.00
2018-12-01T12:25:32.016Z,4848.00
2018-12-01T12:26:32.033Z,4976.00
2018-12-01T12:27:32.005Z,4732.00
2018-12-01T12:28:32.009Z,4388.00
2018-12-01T12:29:31.978Z,4124.00
2018-12-01T12:30:32.187Z,4080.00
2018-12-01T12:31:31.954Z,4096.00
2018-12-01T12:32:31.943Z,4184.00
2018-12-01T12:33:31.953Z,4440.00
2018-12-01T12:34:31.940Z,4808.00
2018-12-01T12:35:31.914Z,5068.00
2018-12-01T12:36:31.904Z,5292.00
2018-12-01T12:37:31.892Z,5304.00
2018-12-01T12:38:31.880Z,4800.00
2018-12-01T12:39:31.884Z,4360.00
2018-12-01T12:40:31.877Z,4228.00
2018-12-01T12:41:31.848Z,4012.00
2018-12-01T12:42:31.837Z,3924.00
2018-12-01T12:43:31.827Z,3920.00
2018-12-01T12:44:31.819Z,3864.00
2018-12-01T12:45:31.816Z,3948.00
2018-12-01T12:46:31.812Z,3932.00